Time;durP1;ratioP1;P1;durP2;ratioP2;P2;SDS_P1;SDS_P2;PMS_P1;PMS_P2;Temp;Humidity;BMP_temperature;BMP_pressure;BME280_temperature;BME280_humidity;BME280_pressure;Samples;Min_cycle;Max_cycle;Signal;HPM_P1;HPM_P2
2023/02/07 00:00:11;;;;;;;11.15;5.90;;;;;;;-2.02;60.63;102764.44;5009489;28;20485;-86
2023/02/07 00:02:37;;;;;;;13.88;6.93;;;;;;;-2.04;61.24;102773.81;5010946;28;20101;-86
2023/02/07 00:05:03;;;;;;;17.10;7.85;;;;;;;-2.11;61.31;102774.69;5009663;28;20141;-85
2023/02/07 00:07:29;;;;;;;11.10;6.80;;;;;;;-2.20;61.76;102774.75;5008952;28;20061;-86
2023/02/07 00:09:56;;;;;;;13.07;6.90;;;;;;;-2.27;62.53;102779.03;5010270;28;20476;-86
2023/02/07 00:12:21;;;;;;;16.77;7.65;;;;;;;-2.29;62.71;102774.78;5008794;28;20034;-85
2023/02/07 00:14:46;;;;;;;13.75;7.15;;;;;;;-2.35;63.33;102773.94;5010690;28;20444;-86
2023/02/07 00:17:12;;;;;;;17.35;7.68;;;;;;;-2.40;63.88;102769.75;5011239;28;20022;-86
2023/02/07 00:19:37;;;;;;;16.27;7.53;;;;;;;-2.43;64.04;102773.16;5010453;28;20440;-86
2023/02/07 00:22:03;;;;;;;18.20;7.75;;;;;;;-2.45;64.07;102776.56;5009138;28;20030;-86
2023/02/07 00:24:28;;;;;;;15.77;7.75;;;;;;;-2.51;64.18;102779.97;5008688;28;20057;-86
2023/02/07 00:26:54;;;;;;;14.05;7.85;;;;;;;-2.56;64.83;102775.75;5008979;28;20474;-86
2023/02/07 00:29:20;;;;;;;14.02;6.90;;;;;;;-2.62;65.29;102771.50;5008865;28;20040;-86
2023/02/07 00:31:45;;;;;;;13.57;7.22;;;;;;;-2.66;65.55;102780.03;5005456;28;20033;-86
2023/02/07 00:34:11;;;;;;;15.07;8.10;;;;;;;-2.70;65.62;102784.28;5009030;28;20045;-86
2023/02/07 00:36:38;;;;;;;17.90;8.30;;;;;;;-2.69;65.80;102792.78;5010497;28;20033;-86
2023/02/07 00:39:07;;;;;;;13.95;7.30;;;;;;;-2.72;64.76;102791.09;5007761;28;20037;-86
2023/02/07 00:41:33;;;;;;;17.92;8.25;;;;;;;-2.75;64.96;102786.00;5008495;28;20022;-86
2023/02/07 00:43:59;;;;;;;14.23;7.93;;;;;;;-2.76;65.31;102783.44;5009160;28;20523;-86
2023/02/07 00:46:25;;;;;;;18.52;8.95;;;;;;;-2.80;66.27;102794.50;5008461;28;20045;-86
2023/02/07 00:48:51;;;;;;;15.82;8.05;;;;;;;-2.82;66.18;102788.56;5010462;28;20121;-86
2023/02/07 00:51:16;;;;;;;14.88;8.25;;;;;;;-2.86;66.63;102781.78;5003007;28;20037;-87
2023/02/07 00:53:43;;;;;;;18.40;8.77;;;;;;;-2.90;67.29;102775.84;5009759;28;20111;-86
2023/02/07 00:56:10;;;;;;;15.90;8.13;;;;;;;-2.88;67.45;102792.00;5008948;28;20033;-86
2023/02/07 00:58:36;;;;;;;16.27;8.30;;;;;;;-2.96;67.31;102791.16;5009160;28;20116;-86
2023/02/07 01:01:03;;;;;;;20.15;10.27;;;;;;;-2.99;67.20;102792.84;5009057;28;20101;-86
2023/02/07 01:03:28;;;;;;;15.27;7.93;;;;;;;-3.01;67.56;102788.59;5014518;28;20041;-86
2023/02/07 01:05:54;;;;;;;15.60;8.32;;;;;;;-3.02;68.23;102786.91;5029629;28;20036;-86
2023/02/07 01:08:19;;;;;;;15.15;8.30;;;;;;;-3.08;68.68;102786.91;5011661;28;20033;-86
2023/02/07 01:10:45;;;;;;;16.45;7.35;;;;;;;-3.07;68.57;102782.66;5010963;28;20052;-86
2023/02/07 01:13:12;;;;;;;16.13;8.75;;;;;;;-3.08;69.04;102780.94;5029603;28;20026;-86
2023/02/07 01:15:41;;;;;;;17.05;8.20;;;;;;;-3.07;69.37;102788.59;5010973;28;20034;-86
2023/02/07 01:18:07;;;;;;;17.10;8.10;;;;;;;-3.06;69.69;102784.34;5029916;28;20029;-86
2023/02/07 01:20:33;;;;;;;18.98;9.18;;;;;;;-3.07;69.90;102778.41;5009352;28;20036;-86
2023/02/07 01:22:59;;;;;;;17.23;8.40;;;;;;;-3.08;70.25;102770.75;5029938;28;20171;-86
2023/02/07 01:25:24;;;;;;;13.52;8.15;;;;;;;-3.12;69.78;102769.91;5026782;28;20104;-86
2023/02/07 01:27:50;;;;;;;15.45;8.32;;;;;;;-3.11;70.19;102779.25;5011633;28;20026;-87
2023/02/07 01:30:15;;;;;;;16.55;9.32;;;;;;;-3.22;70.63;102778.41;5011714;28;20025;-86
2023/02/07 01:32:40;;;;;;;16.25;8.18;;;;;;;-3.23;70.30;102778.41;5028837;28;20520;-86
2023/02/07 01:35:06;;;;;;;16.55;8.30;;;;;;;-3.15;70.31;102781.81;5011397;28;20034;-86
2023/02/07 01:37:32;;;;;;;15.40;8.32;;;;;;;-3.16;70.31;102778.41;5011347;28;20037;-86
2023/02/07 01:39:57;;;;;;;14.45;7.80;;;;;;;-3.17;70.00;102773.31;5011374;28;20121;-86
2023/02/07 01:42:25;;;;;;;15.82;7.93;;;;;;;-3.24;70.56;102764.81;5009683;28;20349;-86
2023/02/07 01:44:51;;;;;;;15.73;8.23;;;;;;;-3.30;70.54;102767.34;5026555;28;20105;-86
2023/02/07 01:47:19;;;;;;;17.67;8.52;;;;;;;-3.36;70.52;102760.59;5007416;28;20048;-86
2023/02/07 01:49:46;;;;;;;15.80;8.23;;;;;;;-3.41;71.32;102766.53;5010316;28;20103;-87
2023/02/07 01:52:21;;;;;;;15.30;7.43;;;;;;;-3.44;71.58;102766.53;5011039;28;20547;-87
2023/02/07 01:54:52;;;;;;;17.83;8.83;;;;;;;-3.49;72.00;102763.97;5025579;28;20117;-86
2023/02/07 01:57:21;;;;;;;15.32;8.05;;;;;;;-3.54;72.54;102767.38;5011038;28;20272;-87
2023/02/07 01:59:49;;;;;;;18.95;8.57;;;;;;;-3.55;72.75;102765.66;5025035;28;20029;-87
2023/02/07 02:02:18;;;;;;;17.10;8.10;;;;;;;-3.58;72.77;102763.97;5025645;28;20029;-87
2023/02/07 02:04:43;;;;;;;16.30;7.70;;;;;;;-3.60;73.16;102758.03;5028670;28;20129;-87
2023/02/07 02:07:10;;;;;;;18.17;8.13;;;;;;;-3.58;73.10;102750.38;5010557;28;20116;-86
2023/02/07 02:09:37;;;;;;;14.93;7.97;;;;;;;-3.67;75.22;102743.56;5024936;28;20029;-86
2023/02/07 02:12:16;;;;;;;17.08;8.05;;;;;;;-3.65;74.53;102741.88;5011003;28;20060;-86
2023/02/07 02:14:56;;;;;;;16.52;8.32;;;;;;;-3.67;74.48;102759.72;5028365;28;20037;-86
2023/02/07 02:17:39;;;;;;;15.25;8.25;;;;;;;-3.72;73.91;102756.31;5010343;28;20049;-86
2023/02/07 02:20:30;;;;;;;15.13;8.15;;;;;;;-3.77;76.03;102755.44;5011033;28;20116;-88
2023/02/07 02:23:07;;;;;;;16.95;8.45;;;;;;;-3.77;74.57;102750.34;5024536;28;20091;-86
2023/02/07 02:25:32;;;;;;;14.52;8.07;;;;;;;-3.95;76.04;102752.03;5004498;28;20058;-87
2023/02/07 02:27:57;;;;;;;16.75;8.30;;;;;;;-3.94;75.99;102754.59;5010963;28;20473;-86
2023/02/07 02:30:51;;;;;;;20.33;9.25;;;;;;;-3.90;75.48;102763.09;5028212;28;20041;-87
2023/02/07 02:33:33;;;;;;;16.83;8.30;;;;;;;-3.83;74.86;102752.91;5011131;28;20435;-87
2023/02/07 02:36:17;;;;;;;16.40;8.10;;;;;;;-3.85;75.05;102752.06;5020486;28;20034;-87
2023/02/07 02:39:08;;;;;;;20.02;9.57;;;;;;;-3.93;76.47;102738.47;5008819;28;20477;-88
2023/02/07 02:41:44;;;;;;;18.10;9.57;;;;;;;-3.94;76.08;102733.34;5010029;28;20048;-87
2023/02/07 02:44:15;;;;;;;17.23;8.27;;;;;;;-3.95;76.13;102747.78;5029146;28;20037;-87
2023/02/07 02:46:43;;;;;;;18.50;8.93;;;;;;;-4.04;76.81;102740.13;5028198;28;20159;-87
2023/02/07 02:49:12;;;;;;;20.50;8.93;;;;;;;-3.99;76.46;102738.44;5010968;28;20049;-87
2023/02/07 02:51:37;;;;;;;20.35;9.80;;;;;;;-4.02;76.57;102744.38;5027945;28;20468;-87
2023/02/07 02:54:03;;;;;;;18.42;9.07;;;;;;;-4.01;76.76;102729.94;5031414;28;20102;-87
2023/02/07 02:56:43;;;;;;;22.77;9.73;;;;;;;-4.04;77.13;102742.66;5013769;28;20033;-87
2023/02/07 02:59:34;;;;;;;20.25;9.20;;;;;;;-4.06;77.10;102740.13;5014557;28;20052;-87
2023/02/07 03:02:03;;;;;;;17.92;8.60;;;;;;;-4.10;76.84;102745.19;4991515;28;20034;-87
2023/02/07 03:04:55;;;;;;;17.23;9.88;;;;;;;-4.06;78.40;102744.38;5031010;28;20052;-87
2023/02/07 03:07:27;;;;;;;17.80;9.35;;;;;;;-3.95;77.29;102737.59;5010523;28;20042;-88
2023/02/07 03:10:08;;;;;;;19.75;10.20;;;;;;;-3.99;78.19;102741.00;5014365;28;20061;-87
2023/02/07 03:12:52;;;;;;;17.45;8.73;;;;;;;-4.02;78.27;102748.63;5013458;28;20098;-87
2023/02/07 03:15:17;;;;;;;18.33;8.65;;;;;;;-4.09;78.07;102750.28;5025347;28;20446;-88
2023/02/07 03:18:18;;;;;;;17.95;8.82;;;;;;;-4.26;79.48;102757.06;5010555;28;20029;-87
2023/02/07 03:20:58;;;;;;;18.25;8.95;;;;;;;-4.20;78.62;102762.13;4970441;28;20031;-87
2023/02/07 03:23:23;;;;;;;21.13;9.88;;;;;;;-4.14;77.70;102761.31;4954278;28;20463;-87
2023/02/07 03:25:51;;;;;;;18.80;8.93;;;;;;;-4.16;77.69;102757.91;4970797;28;20126;-88
2023/02/07 03:28:19;;;;;;;20.83;9.07;;;;;;;-4.21;78.82;102772.31;4971018;28;20197;-87
2023/02/07 03:30:49;;;;;;;16.08;8.45;;;;;;;-4.28;79.65;102773.16;4954253;28;20113;-88
2023/02/07 03:33:18;;;;;;;19.50;9.18;;;;;;;-4.35;80.50;102767.19;4954177;28;20383;-87
2023/02/07 03:35:55;;;;;;;18.63;9.65;;;;;;;-4.32;79.75;102768.91;4953626;28;20362;-87
2023/02/07 03:38:21;;;;;;;22.38;9.60;;;;;;;-4.33;79.57;102772.28;4950721;28;20035;-87
2023/02/07 03:41:04;;;;;;;18.23;9.82;;;;;;;-4.36;78.98;102763.81;4951885;28;20110;-87
2023/02/07 03:43:32;;;;;;;21.98;11.32;;;;;;;-4.35;80.07;102768.03;4970322;28;20038;-87
2023/02/07 03:45:57;;;;;;;23.60;10.68;;;;;;;-4.26;79.67;102777.41;4954583;28;20050;-88
2023/02/07 03:48:23;;;;;;;22.25;11.10;;;;;;;-4.28;79.58;102780.81;4969786;28;20038;-88
2023/02/07 03:50:50;;;;;;;23.48;10.55;;;;;;;-4.36;79.54;102786.72;4958455;28;20045;-87
2023/02/07 03:53:17;;;;;;;23.98;12.10;;;;;;;-4.36;80.49;102786.72;4954017;28;20034;-87
2023/02/07 03:55:42;;;;;;;24.42;10.60;;;;;;;-4.35;79.57;102793.50;5008874;28;20127;-88
2023/02/07 03:58:08;;;;;;;24.95;10.35;;;;;;;-4.37;80.17;102797.72;5013094;28;20133;-87
2023/02/07 04:00:34;;;;;;;21.15;10.55;;;;;;;-4.38;80.62;102795.19;5013294;28;20385;-87
2023/02/07 04:02:59;;;;;;;21.13;11.48;;;;;;;-4.41;80.00;102798.56;5031030;28;20345;-87
2023/02/07 04:05:25;;;;;;;18.88;9.35;;;;;;;-4.48;80.56;102793.41;5012275;28;20200;-87
2023/02/07 04:07:50;;;;;;;20.23;10.85;;;;;;;-4.56;81.59;102802.72;5030935;28;20440;-87
2023/02/07 04:10:16;;;;;;;22.45;10.55;;;;;;;-4.60;82.05;102804.38;5013466;28;20033;-88
2023/02/07 04:12:42;;;;;;;20.85;8.93;;;;;;;-4.52;81.22;102804.44;5011707;28;20045;-87
2023/02/07 04:15:08;;;;;;;25.65;11.00;;;;;;;-4.51;80.39;102804.44;5011408;28;20033;-88
2023/02/07 04:17:34;;;;;;;21.10;10.27;;;;;;;-4.57;80.71;102806.94;5030999;28;20026;-88
2023/02/07 04:20:00;;;;;;;24.17;10.10;;;;;;;-4.72;82.61;102801.75;5008422;28;20604;-87
2023/02/07 04:22:26;;;;;;;24.13;11.05;;;;;;;-4.71;82.52;102795.84;5013091;28;20022;-88
2023/02/07 04:24:52;;;;;;;21.35;9.73;;;;;;;-4.69;82.24;102806.88;5009174;28;20041;-87
2023/02/07 04:27:17;;;;;;;24.23;10.77;;;;;;;-4.82;84.23;102805.97;5029747;28;20125;-87
2023/02/07 04:29:43;;;;;;;21.85;10.80;;;;;;;-4.87;83.55;102811.84;5030866;28;20496;-87
2023/02/07 04:32:08;;;;;;;21.17;10.68;;;;;;;-4.81;83.23;102801.72;5033528;28;20547;-87
2023/02/07 04:34:34;;;;;;;21.92;10.20;;;;;;;-4.75;82.73;102805.16;5011359;28;20534;-87
2023/02/07 04:36:59;;;;;;;23.10;9.55;;;;;;;-4.70;82.37;102820.44;5028330;28;20034;-87
2023/02/07 04:39:25;;;;;;;22.35;10.55;;;;;;;-4.74;82.90;102834.84;5014317;28;20041;-87
2023/02/07 04:41:51;;;;;;;20.90;9.45;;;;;;;-4.67;82.68;102831.47;5014524;28;20776;-87
2023/02/07 04:44:16;;;;;;;18.27;10.13;;;;;;;-4.56;82.05;102829.00;5014348;28;20495;-87
2023/02/07 04:46:41;;;;;;;21.63;10.65;;;;;;;-4.56;81.29;102839.19;5012824;28;20067;-88
2023/02/07 04:49:07;;;;;;;33.33;14.70;;;;;;;-4.60;81.53;102832.38;5012964;28;20056;-87
2023/02/07 04:51:32;;;;;;;30.38;14.75;;;;;;;-4.59;82.15;102848.47;5012187;28;20340;-87
2023/02/07 04:53:58;;;;;;;26.20;11.77;;;;;;;-4.84;83.34;102837.31;5030580;28;20029;-87
2023/02/07 04:56:24;;;;;;;32.33;13.50;;;;;;;-4.72;83.88;102829.75;5012132;28;20025;-87
2023/02/07 04:58:50;;;;;;;22.90;11.30;;;;;;;-4.64;83.62;102845.91;5012996;28;20396;-87
2023/02/07 05:01:15;;;;;;;24.63;10.30;;;;;;;-4.49;81.01;102845.16;5014778;28;20038;-87
2023/02/07 05:03:41;;;;;;;19.50;9.77;;;;;;;-4.42;81.11;102846.91;5012269;28;20049;-88
2023/02/07 05:06:06;;;;;;;19.40;8.98;;;;;;;-4.41;80.73;102846.91;5030922;28;20032;-87
2023/02/07 05:08:32;;;;;;;19.92;10.00;;;;;;;-4.42;80.43;102840.13;5014720;28;20073;-87
2023/02/07 05:10:58;;;;;;;19.75;9.90;;;;;;;-4.52;82.15;102855.31;5033351;28;20036;-87
2023/02/07 05:13:24;;;;;;;21.05;8.95;;;;;;;-4.63;81.17;102849.31;5033543;28;20025;-87
2023/02/07 05:15:50;;;;;;;25.38;9.00;;;;;;;-4.44;81.21;102844.34;5030612;28;20029;-87
2023/02/07 05:18:15;;;;;;;18.75;9.18;;;;;;;-4.31;80.61;102846.97;5033533;28;20030;-87
2023/02/07 05:20:41;;;;;;;18.92;8.50;;;;;;;-4.28;80.43;102852.06;5015216;28;20056;-87
2023/02/07 05:23:06;;;;;;;13.85;7.57;;;;;;;-4.38;79.59;102858.81;5016322;28;20037;-87
2023/02/07 05:25:32;;;;;;;16.33;8.10;;;;;;;-4.34;79.65;102847.78;5007241;28;20496;-87
2023/02/07 05:27:57;;;;;;;16.40;8.25;;;;;;;-4.28;79.52;102839.34;5018115;28;20108;-87
2023/02/07 05:30:23;;;;;;;21.42;8.55;;;;;;;-4.41;79.93;102849.44;5054054;28;20038;-87
2023/02/07 05:33:03;;;;;;;14.88;8.00;;;;;;;-4.39;80.21;102852.84;5038081;28;20072;-87
2023/02/07 05:35:45;;;;;;;15.73;8.30;;;;;;;-4.33;80.48;102851.19;5050201;28;20032;-86
2023/02/07 05:38:13;;;;;;;18.17;8.07;;;;;;;-4.41;80.64;102852.00;5049194;28;20028;-87
2023/02/07 05:40:40;;;;;;;15.15;7.72;;;;;;;-4.49;81.19;102861.28;5037371;28;20013;-86
2023/02/07 05:43:06;;;;;;;15.40;8.02;;;;;;;-4.47;80.13;102862.13;5054781;28;20048;-87
2023/02/07 05:45:32;;;;;;;15.57;8.27;;;;;;;-4.49;80.49;102861.28;5036778;28;20017;-87
2023/02/07 05:47:58;;;;;;;16.30;9.00;;;;;;;-4.42;81.08;102875.75;5036564;28;20034;-87
2023/02/07 05:50:23;;;;;;;18.13;8.75;;;;;;;-4.39;81.25;102860.50;5012945;28;20040;-87
2023/02/07 05:52:49;;;;;;;17.67;9.32;;;;;;;-4.41;80.38;102861.31;5009230;28;20123;-86
2023/02/07 05:55:14;;;;;;;20.42;9.20;;;;;;;-4.46;80.26;102857.91;5008783;28;20108;-87
2023/02/07 05:57:41;;;;;;;16.95;9.18;;;;;;;-4.52;80.98;102857.84;5029595;28;20029;-87
2023/02/07 06:00:11;;;;;;;17.73;8.73;;;;;;;-4.52;80.92;102858.72;5029808;28;20030;-87
2023/02/07 06:02:36;;;;;;;17.67;8.00;;;;;;;-4.52;81.12;102865.50;5029494;28;20025;-88
2023/02/07 06:05:02;;;;;;;17.88;8.38;;;;;;;-4.51;81.18;102865.50;5029625;28;20400;-87
2023/02/07 06:07:27;;;;;;;17.52;7.97;;;;;;;-4.58;80.80;102856.13;5011632;28;20037;-87
2023/02/07 06:09:52;;;;;;;17.30;8.68;;;;;;;-4.58;81.47;102860.38;5029941;28;20034;-87
2023/02/07 06:12:18;;;;;;;15.27;8.10;;;;;;;-4.58;81.62;102861.22;5012604;28;20033;-86
2023/02/07 06:14:43;;;;;;;15.45;8.60;;;;;;;-4.57;81.58;102864.59;5024985;28;20029;-86
2023/02/07 06:17:09;;;;;;;20.17;9.00;;;;;;;-4.54;81.37;102870.56;5009705;28;20567;-87
2023/02/07 06:19:35;;;;;;;16.08;8.27;;;;;;;-4.54;81.26;102862.09;5029948;28;20452;-87
2023/02/07 06:22:00;;;;;;;17.73;9.48;;;;;;;-4.48;81.41;102865.53;5030025;28;20041;-88
2023/02/07 06:24:26;;;;;;;18.20;8.52;;;;;;;-4.41;80.60;102863.88;5023698;28;20037;-87
2023/02/07 06:26:51;;;;;;;16.50;8.18;;;;;;;-4.24;79.83;102856.31;5010198;28;20026;-87
2023/02/07 06:29:16;;;;;;;20.05;8.40;;;;;;;-4.23;78.92;102860.56;5015008;28;20090;-87
2023/02/07 06:31:42;;;;;;;16.75;8.00;;;;;;;-4.27;79.11;102857.16;5015653;28;20033;-87
2023/02/07 06:34:07;;;;;;;15.70;7.95;;;;;;;-4.25;79.83;102869.91;5015238;28;20036;-87
2023/02/07 06:36:32;;;;;;;15.35;8.40;;;;;;;-4.23;79.45;102873.28;5013394;28;20060;-88
2023/02/07 06:38:58;;;;;;;15.93;7.82;;;;;;;-4.25;80.17;102880.09;5015283;28;20508;-87
2023/02/07 06:41:23;;;;;;;14.80;7.60;;;;;;;-4.24;79.73;102876.66;5031498;28;20522;-87
2023/02/07 06:43:49;;;;;;;19.58;8.57;;;;;;;-4.26;79.25;102876.69;5033647;28;20037;-87
2023/02/07 06:46:14;;;;;;;21.10;8.40;;;;;;;-4.27;78.83;102884.31;5033935;28;20083;-87
2023/02/07 06:48:40;;;;;;;13.68;7.50;;;;;;;-4.23;79.05;102888.56;5031879;28;20055;-86
2023/02/07 06:51:06;;;;;;;38.70;16.73;;;;;;;-4.20;79.23;102883.47;5020574;28;20388;-87
2023/02/07 06:53:31;;;;;;;60.30;24.08;;;;;;;-4.17;79.38;102886.03;5032659;28;20022;-87
2023/02/07 06:55:57;;;;;;;49.53;21.70;;;;;;;-4.13;78.77;102891.16;5015357;28;20494;-87
2023/02/07 06:58:22;;;;;;;29.40;14.45;;;;;;;-4.10;78.37;102885.22;5015455;28;20033;-87
2023/02/07 07:00:48;;;;;;;24.15;11.68;;;;;;;-4.05;78.41;102891.19;5014402;28;20040;-87
2023/02/07 07:03:14;;;;;;;21.70;10.32;;;;;;;-4.02;77.63;102906.50;5030373;28;20045;-87
2023/02/07 07:05:40;;;;;;;23.65;10.88;;;;;;;-4.02;78.14;102896.31;5030585;28;20097;-87
2023/02/07 07:08:07;;;;;;;22.38;10.35;;;;;;;-4.01;77.38;102903.13;5011282;28;20037;-88
2023/02/07 07:10:33;;;;;;;25.25;11.32;;;;;;;-3.79;75.39;102892.19;5024531;28;20029;-87
2023/02/07 07:12:58;;;;;;;30.30;11.80;;;;;;;-3.59;75.19;102892.22;5015010;28;20034;-88
2023/02/07 07:15:24;;;;;;;26.45;12.13;;;;;;;-3.46;75.92;102899.06;5014333;28;20500;-88
2023/02/07 07:17:49;;;;;;;22.92;10.65;;;;;;;-3.40;75.96;102890.59;5014911;28;20515;-89
2023/02/07 07:20:15;;;;;;;26.10;12.65;;;;;;;-3.32;76.00;102888.91;5014270;28;20036;-88
2023/02/07 07:22:41;;;;;;;28.88;14.98;;;;;;;-3.27;75.79;102881.25;5014058;28;20065;-88
2023/02/07 07:25:07;;;;;;;23.88;9.85;;;;;;;-3.19;75.81;102875.31;5032569;28;20026;-88
2023/02/07 07:27:33;;;;;;;17.42;10.45;;;;;;;-3.09;75.65;102879.56;5014312;28;20112;-89
2023/02/07 07:29:58;;;;;;;21.35;10.68;;;;;;;-3.08;75.78;102886.38;5032133;28;20129;-88
2023/02/07 07:32:24;;;;;;;17.65;9.13;;;;;;;-3.01;75.24;102889.78;5014283;28;20414;-88
2023/02/07 07:34:49;;;;;;;23.40;9.23;;;;;;;-2.91;75.71;102890.63;5011027;28;20103;-88
2023/02/07 07:37:15;;;;;;;20.80;10.60;;;;;;;-2.90;76.50;102893.19;5032666;28;20391;-88
2023/02/07 07:39:41;;;;;;;24.83;10.55;;;;;;;-2.89;76.27;102894.88;5013434;28;20037;-88
2023/02/07 07:42:06;;;;;;;20.25;10.10;;;;;;;-2.78;75.95;102897.41;5026265;28;20068;-88
2023/02/07 07:44:32;;;;;;;19.45;10.32;;;;;;;-2.69;75.71;102899.97;5013540;28;20029;-88
2023/02/07 07:46:57;;;;;;;24.48;9.90;;;;;;;-2.58;75.21;102900.81;5013881;28;20029;-88
2023/02/07 07:49:23;;;;;;;18.92;9.75;;;;;;;-2.49;74.40;102900.81;5030548;28;20025;-88
2023/02/07 07:51:49;;;;;;;15.55;8.43;;;;;;;-2.39;73.00;102897.41;5029679;28;20501;-87
2023/02/07 07:54:15;;;;;;;22.33;10.52;;;;;;;-2.21;71.38;102904.16;5012029;28;20033;-88
2023/02/07 07:56:40;;;;;;;18.10;9.07;;;;;;;-2.08;70.08;102892.19;5013995;28;20079;-87
2023/02/07 07:59:06;;;;;;;21.08;8.77;;;;;;;-2.01;69.13;102893.88;5014409;28;20025;-87
2023/02/07 08:01:31;;;;;;;21.05;8.60;;;;;;;-1.95;69.08;102891.31;5014258;28;20053;-88
2023/02/07 08:03:57;;;;;;;21.30;9.32;;;;;;;-1.90;68.90;102875.97;5016504;28;20056;-89
2023/02/07 08:06:22;;;;;;;15.95;8.38;;;;;;;-1.85;67.94;102884.44;5016400;28;20108;-91
2023/02/07 08:08:48;;;;;;;17.50;8.57;;;;;;;-1.81;67.91;102870.78;5033706;28;20076;-91
2023/02/07 08:11:13;;;;;;;16.05;8.02;;;;;;;-1.78;67.82;102875.88;5012620;28;20032;-92
2023/02/07 08:13:39;;;;;;;16.77;7.60;;;;;;;-1.72;66.80;102874.16;5014593;28;20072;-91
2023/02/07 08:16:09;;;;;;;16.13;8.18;;;;;;;-1.67;66.58;102863.91;5014452;28;20053;-90
2023/02/07 08:18:36;;;;;;;16.23;8.38;;;;;;;-1.63;66.43;102857.91;5013870;28;20548;-91
2023/02/07 08:21:01;;;;;;;19.25;9.65;;;;;;;-1.56;67.18;102845.94;5013583;28;20037;-90
2023/02/07 08:23:27;;;;;;;18.73;8.32;;;;;;;-1.53;66.51;102848.50;5015627;28;20083;-90
2023/02/07 08:25:53;;;;;;;16.92;8.50;;;;;;;-1.49;66.15;102851.03;5007875;28;20455;-90
2023/02/07 08:28:18;;;;;;;16.83;9.05;;;;;;;-1.43;65.97;102860.38;5032511;28;20120;-89
2023/02/07 08:30:49;;;;;;;18.05;9.60;;;;;;;-1.36;65.69;102864.56;5015528;28;20036;-88
2023/02/07 08:33:16;;;;;;;18.15;8.60;;;;;;;-1.30;65.00;102861.97;5013423;28;20052;-90
2023/02/07 08:35:41;;;;;;;19.65;8.85;;;;;;;-1.25;64.45;102852.53;5013257;28;20037;-88
2023/02/07 08:38:07;;;;;;;20.67;9.35;;;;;;;-1.17;64.10;102857.59;5012835;28;20107;-89
2023/02/07 08:40:33;;;;;;;14.38;7.47;;;;;;;-1.08;63.54;102854.97;5013220;28;20064;-89
2023/02/07 08:42:59;;;;;;;15.65;7.43;;;;;;;-1.05;62.97;102847.28;5026902;28;20041;-89
2023/02/07 08:45:25;;;;;;;21.00;8.48;;;;;;;-1.02;63.26;102850.66;5030971;28;20481;-90
2023/02/07 08:47:51;;;;;;;16.40;7.88;;;;;;;-0.95;63.26;102842.94;5012024;28;20402;-89
2023/02/07 08:50:17;;;;;;;16.45;7.90;;;;;;;-0.86;63.51;102851.38;5030433;28;20068;-89
2023/02/07 08:52:43;;;;;;;14.02;6.93;;;;;;;-0.81;63.24;102846.22;5030433;28;20021;-89
2023/02/07 08:55:10;;;;;;;15.02;7.93;;;;;;;-0.79;63.48;102845.34;5012854;28;20036;-89
2023/02/07 08:57:36;;;;;;;16.25;7.45;;;;;;;-0.70;62.63;102837.56;5025912;28;20065;-89
2023/02/07 09:00:06;;;;;;;15.52;7.57;;;;;;;-0.65;62.62;102842.66;5030995;28;20025;-89
2023/02/07 09:02:31;;;;;;;17.25;7.03;;;;;;;-0.62;61.91;102845.19;5010591;28;20083;-90
2023/02/07 09:04:57;;;;;;;12.20;6.65;;;;;;;-0.54;61.42;102838.28;5013222;28;20103;-90
2023/02/07 09:07:22;;;;;;;14.18;6.15;;;;;;;-0.47;60.98;102831.34;5013315;28;20036;-90
2023/02/07 09:09:48;;;;;;;11.88;5.72;;;;;;;-0.46;60.70;102828.75;5013730;28;20044;-90
2023/02/07 09:12:13;;;;;;;12.18;6.10;;;;;;;-0.42;60.92;102820.19;5012750;28;20365;-88
2023/02/07 09:14:39;;;;;;;11.77;5.68;;;;;;;-0.42;61.36;102811.66;5030417;28;20140;-87
2023/02/07 09:17:06;;;;;;;10.95;5.72;;;;;;;-0.44;61.13;102818.50;5030863;28;20473;-88
2023/02/07 09:19:33;;;;;;;10.30;5.78;;;;;;;-0.41;60.68;102823.59;5005699;28;20029;-88
2023/02/07 09:21:59;;;;;;;7.65;4.78;;;;;;;-0.39;60.83;102822.72;5001773;28;20092;-88
2023/02/07 09:24:24;;;;;;;14.95;5.20;;;;;;;-0.34;59.81;102815.84;5011776;28;20569;-88
2023/02/07 09:26:50;;;;;;;9.85;5.18;;;;;;;-0.30;59.48;102810.69;5030554;28;20029;-87
2023/02/07 09:29:15;;;;;;;11.05;6.28;;;;;;;-0.25;59.21;102809.75;5004683;28;20518;-89
2023/02/07 09:31:41;;;;;;;9.60;5.85;;;;;;;-0.19;59.79;102819.94;5028538;28;20029;-89
2023/02/07 09:34:07;;;;;;;9.80;5.50;;;;;;;-0.15;59.76;102815.63;5024769;28;20026;-89
2023/02/07 09:36:33;;;;;;;12.25;5.60;;;;;;;-0.09;59.12;102820.69;5029962;28;20041;-89
2023/02/07 09:38:59;;;;;;;13.95;5.28;;;;;;;-0.07;59.04;102812.09;5029771;28;20029;-89
2023/02/07 09:41:48;;;;;;;9.90;5.60;;;;;;;-0.01;58.53;102818.88;5030179;28;20040;-88
2023/02/07 09:44:37;;;;;;;9.80;5.22;;;;;;;0.05;57.83;102811.06;5001439;28;20045;-89
2023/02/07 09:47:14;;;;;;;10.98;5.85;;;;;;;0.07;58.66;102805.94;5003247;28;20045;-90
2023/02/07 09:50:27;;;;;;;11.57;6.18;;;;;;;0.14;57.13;102810.94;5010542;28;20030;-89
2023/02/07 09:53:11;;;;;;;9.75;5.28;;;;;;;0.25;56.57;102801.41;4950581;28;20031;-88
2023/02/07 09:55:50;;;;;;;13.52;6.30;;;;;;;0.32;56.73;102797.88;4947897;28;20042;-89
2023/02/07 09:58:34;;;;;;;12.25;6.60;;;;;;;0.48;56.36;102802.75;4926727;29;20035;-89
2023/02/07 10:01:14;;;;;;;10.15;5.50;;;;;;;0.60;55.75;102797.44;4940457;28;20051;-90
2023/02/07 10:04:07;;;;;;;11.27;5.30;;;;;;;0.68;54.69;102794.75;4950601;28;20058;-90
2023/02/07 10:06:35;;;;;;;11.52;5.35;;;;;;;0.77;55.42;102782.63;4950798;28;20138;-90
2023/02/07 10:09:01;;;;;;;10.68;6.65;;;;;;;0.97;53.51;102787.41;4952226;28;20070;-90
2023/02/07 10:11:47;;;;;;;9.95;5.90;;;;;;;1.03;53.32;102787.31;4952989;28;20118;-90
2023/02/07 10:14:31;;;;;;;10.50;5.38;;;;;;;1.07;54.35;102782.97;4949454;28;20399;-89
2023/02/07 10:17:02;;;;;;;10.98;4.85;;;;;;;0.97;53.44;102772.84;4937553;29;20043;-89
2023/02/07 10:19:49;;;;;;;10.93;5.78;;;;;;;0.90;54.46;102773.88;4936880;28;20035;-90
2023/02/07 10:22:25;;;;;;;10.32;4.82;;;;;;;1.13;52.12;102777.72;4949565;28;20213;-90
2023/02/07 10:25:02;;;;;;;9.02;5.05;;;;;;;1.06;53.34;102769.28;5025777;28;20034;-91
2023/02/07 10:27:36;;;;;;;13.18;5.70;;;;;;;1.04;53.66;102772.75;5023977;28;20100;-92
2023/02/07 10:30:15;;;;;;;9.15;4.80;;;;;;;1.13;52.20;102773.44;5028777;28;20376;-91
2023/02/07 10:32:44;;;;;;;10.95;5.85;;;;;;;1.18;53.58;102770.78;5033506;28;20032;-91
2023/02/07 10:35:18;;;;;;;12.38;7.63;;;;;;;1.36;51.82;102767.88;5016181;28;20112;-90
2023/02/07 10:37:45;;;;;;;13.80;8.15;;;;;;;1.47;52.59;102768.50;5015814;28;20566;-89
2023/02/07 10:40:14;;;;;;;10.68;5.32;;;;;;;1.59;51.50;102765.69;5033595;28;20039;-89
2023/02/07 10:42:44;;;;;;;9.63;4.93;;;;;;;1.77;50.12;102758.47;5030650;28;20529;-91
2023/02/07 10:45:13;;;;;;;9.68;4.15;;;;;;;1.85;49.84;102769.44;5016491;28;20088;-90
2023/02/07 10:47:40;;;;;;;8.77;4.18;;;;;;;1.71;50.57;102776.59;5015410;28;20037;-90
2023/02/07 10:50:12;;;;;;;8.98;4.53;;;;;;;1.69;50.56;102768.06;5038287;28;20421;-92
2023/02/07 10:52:47;;;;;;;8.10;4.28;;;;;;;1.81;49.29;102758.38;5036997;28;20025;-91
2023/02/07 10:55:16;;;;;;;7.70;3.53;;;;;;;1.90;49.31;102754.75;5017648;28;20039;-89
2023/02/07 10:57:52;;;;;;;9.07;4.45;;;;;;;1.87;48.87;102752.28;5014006;28;20484;-90
2023/02/07 11:00:25;;;;;;;6.82;3.72;;;;;;;1.84;50.41;102742.91;5035572;28;20111;-91
2023/02/07 11:02:53;;;;;;;5.43;3.25;;;;;;;1.80;49.99;102736.13;5012755;28;20037;-90
2023/02/07 11:05:20;;;;;;;5.80;3.47;;;;;;;1.76;50.11;102733.66;5014507;28;20030;-90
2023/02/07 11:08:03;;;;;;;7.85;3.65;;;;;;;1.76;49.51;102728.53;5013438;28;20421;-90
2023/02/07 11:10:37;;;;;;;8.20;3.72;;;;;;;1.77;50.27;102730.22;5011007;28;20037;-90
2023/02/07 11:13:09;;;;;;;8.93;4.18;;;;;;;1.76;51.05;102729.38;5033440;28;20051;-89
2023/02/07 11:15:37;;;;;;;9.52;3.78;;;;;;;1.74;50.15;102720.84;5027720;28;20340;-90
2023/02/07 11:18:03;;;;;;;8.40;3.90;;;;;;;1.80;49.61;102718.13;5030403;28;20033;-90
2023/02/07 11:20:38;;;;;;;6.93;3.83;;;;;;;1.81;49.24;102711.28;5014986;28;20404;-90
2023/02/07 11:23:12;;;;;;;6.18;3.90;;;;;;;1.87;48.70;102711.13;5014955;28;20061;-91